Time,TemperatureF,DewpointF,PressureIn,WindDirection,WindDirectionDegrees,WindSpeedMPH,WindSpeedGustMPH,Humidity,HourlyPrecipIn,Conditions,Clouds,dailyrainin,SoftwareType,DateUTC
2013-07-12 00:02:00,77.0,71.4,29.68,ESE,112,0.0,0.0,83,0.00,,---,0.00,VWS V14.00,2013-07-12 04:02:00,
2013-07-12 00:03:00,77.0,71.8,29.68,ESE,112,1.3,1.3,84,0.00,,---,0.00,VWS V14.00,2013-07-12 04:03:00,
2013-07-12 00:04:00,77.0,71.8,29.68,ESE,112,1.1,1.1,84,0.00,,---,0.00,VWS V14.00,2013-07-12 04:04:00,
2013-07-12 00:06:00,77.0,71.8,29.68,NW,315,0.9,0.9,84,0.00,,---,0.00,VWS V14.00,2013-07-12 04:06:00,
2013-07-12 00:12:00,77.0,71.8,29.68,WSW,248,0.0,0.0,84,0.00,,---,0.00,VWS V14.00,2013-07-12 04:12:00,
2013-07-12 00:17:00,77.0,71.4,29.68,West,270,0.9,1.3,83,0.00,,---,0.00,VWS V14.00,2013-07-12 04:17:00,
2013-07-12 00:22:00,77.0,71.4,29.71,West,270,0.0,0.0,83,0.00,,---,0.00,VWS V14.00,2013-07-12 04:22:00,
2013-07-12 00:28:00,77.0,71.4,29.71,WNW,292,1.1,1.1,83,0.00,,---,0.00,VWS V14.00,2013-07-12 04:28:00,
2013-07-12 00:33:00,76.8,71.6,29.71,North,0,0.0,0.0,84,0.00,,---,0.00,VWS V14.00,2013-07-12 04:33:00,
2013-07-12 00:39:00,76.8,71.3,29.68,ENE,68,0.0,0.0,83,0.00,,---,0.00,VWS V14.00,2013-07-12 04:39:00,
2013-07-12 00:44:00,76.8,71.6,29.68,ENE,68,0.0,0.0,84,0.00,,---,0.00,VWS V14.00,2013-07-12 04:44:00,
2013-07-12 00:49:00,76.8,71.6,29.68,NE,45,0.0,0.0,84,0.00,,---,0.00,VWS V14.00,2013-07-12 04:49:00,
2013-07-12 00:54:00,76.6,71.1,29.68,ENE,68,1.1,1.1,83,0.00,,---,0.00,VWS V14.00,2013-07-12 04:54:00,
2013-07-12 01:00:00,76.6,70.0,29.68,ENE,68,1.1,1.1,80,0.00,,---,0.00,VWS V14.00,2013-07-12 05:00:00,
2013-07-12 01:05:00,76.6,70.0,29.68,ENE,68,1.6,1.6,80,0.00,,---,0.00,VWS V14.00,2013-07-12 05:05:00,
2013-07-12 01:11:00,76.5,69.8,29.68,SSE,158,1.1,2.9,80,0.00,,---,0.00,VWS V14.00,2013-07-12 05:11:00,
2013-07-12 01:16:00,76.5,69.1,29.68,ENE,68,0.0,3.1,78,0.00,,---,0.00,VWS V14.00,2013-07-12 05:16:00,
2013-07-12 01:21:00,76.5,69.1,29.68,ENE,68,2.0,2.9,78,0.00,,---,0.00,VWS V14.00,2013-07-12 05:21:00,
2013-07-12 01:26:00,76.3,68.6,29.68,NE,45,2.5,2.5,77,0.00,,---,0.00,VWS V14.00,2013-07-12 05:26:00,
2013-07-12 01:32:00,76.3,68.6,29.68,SSE,158,2.0,2.0,77,0.00,,---,0.00,VWS V14.00,2013-07-12 05:32:00,
2013-07-12 01:37:00,76.5,67.9,29.68,NNE,22,1.1,2.7,75,0.00,,---,0.00,VWS V14.00,2013-07-12 05:37:00,
2013-07-12 01:43:00,76.5,67.6,29.68,NNW,338,1.3,2.0,74,0.00,,---,0.00,VWS V14.00,2013-07-12 05:43:00,
2013-07-12 01:49:00,76.3,67.4,29.71,ESE,112,0.0,1.6,74,0.00,,---,0.00,VWS V14.00,2013-07-12 05:49:00,
2013-07-12 01:55:00,76.3,67.4,29.71,NE,45,1.3,1.3,74,0.00,,---,0.00,VWS V14.00,2013-07-12 05:55:00,
2013-07-12 02:00:00,76.3,67.4,29.71,ENE,68,1.1,3.8,74,0.00,,---,0.00,VWS V14.00,2013-07-12 06:00:00,
2013-07-12 02:06:00,75.9,67.4,29.71,ESE,112,2.0,4.0,75,0.00,,---,0.00,VWS V14.00,2013-07-12 06:06:00,
2013-07-12 02:11:00,75.9,66.7,29.68,ESE,112,0.9,1.1,73,0.00,,---,0.00,VWS V14.00,2013-07-12 06:11:00,
2013-07-12 02:16:00,75.9,66.7,29.68,ESE,112,0.0,1.1,73,0.00,,---,0.00,VWS V14.00,2013-07-12 06:16:00,
2013-07-12 02:22:00,75.7,66.1,29.68,ENE,68,3.4,4.9,72,0.00,,---,0.00,VWS V14.00,2013-07-12 06:22:00,
2013-07-12 02:28:00,75.6,65.5,29.68,SE,135,4.0,4.0,71,0.00,,---,0.00,VWS V14.00,2013-07-12 06:28:00,
2013-07-12 02:33:00,75.6,65.1,29.68,ENE,68,3.4,3.4,70,0.00,,---,0.00,VWS V14.00,2013-07-12 06:33:00,
2013-07-12 02:38:00,75.9,64.6,29.68,East,90,2.9,3.1,68,0.00,,---,0.00,VWS V14.00,2013-07-12 06:38:00,
2013-07-12 02:43:00,75.6,65.5,29.68,ENE,68,2.9,2.9,71,0.00,,---,0.00,VWS V14.00,2013-07-12 06:43:00,
2013-07-12 02:49:00,75.6,64.7,29.68,ENE,68,1.3,5.8,69,0.00,,---,0.00,VWS V14.00,2013-07-12 06:49:00,
2013-07-12 02:54:00,75.6,64.7,29.68,NNE,22,4.0,4.0,69,0.00,,---,0.00,VWS V14.00,2013-07-12 06:54:00,
2013-07-12 03:00:00,75.9,64.6,29.68,NE,45,3.8,3.8,68,0.00,,---,0.00,VWS V14.00,2013-07-12 07:00:00,
2013-07-12 03:05:00,75.7,63.6,29.68,East,90,1.3,5.8,66,0.00,,---,0.00,VWS V14.00,2013-07-12 07:05:00,
2013-07-12 03:11:00,75.9,63.8,29.68,NNE,22,2.0,2.7,66,0.00,,---,0.00,VWS V14.00,2013-07-12 07:11:00,
2013-07-12 03:16:00,75.6,64.3,29.68,ENE,68,0.0,2.5,68,0.00,,---,0.00,VWS V14.00,2013-07-12 07:16:00,
2013-07-12 03:21:00,75.7,63.6,29.71,East,90,0.0,1.1,66,0.00,,---,0.00,VWS V14.00,2013-07-12 07:21:00,
2013-07-12 03:27:00,75.6,63.8,29.71,NNW,338,1.6,1.6,67,0.00,,---,0.00,VWS V14.00,2013-07-12 07:27:00,
2013-07-12 03:32:00,75.4,63.2,29.71,ESE,112,3.6,3.6,66,0.00,,---,0.00,VWS V14.00,2013-07-12 07:32:00,
2013-07-12 03:37:00,75.4,63.7,29.71,East,90,5.4,5.4,67,0.00,,---,0.00,VWS V14.00,2013-07-12 07:37:00,
2013-07-12 03:42:00,75.2,63.5,29.71,SSE,158,3.1,3.1,67,0.00,,---,0.00,VWS V14.00,2013-07-12 07:42:00,
2013-07-12 03:48:00,75.2,63.5,29.71,ESE,112,2.7,2.7,67,0.00,,---,0.00,VWS V14.00,2013-07-12 07:48:00,
2013-07-12 03:53:00,75.0,63.8,29.71,SSW,202,1.1,4.7,68,0.00,,---,0.00,VWS V14.00,2013-07-12 07:53:00,
2013-07-12 03:59:00,75.0,63.3,29.71,NNE,22,2.5,2.5,67,0.00,,---,0.00,VWS V14.00,2013-07-12 07:59:00,
2013-07-12 04:06:00,75.0,63.3,29.71,East,90,2.7,2.7,67,0.00,,---,0.00,VWS V14.00,2013-07-12 08:06:00,
2013-07-12 04:12:00,75.2,62.2,29.71,NNW,338,3.1,3.1,64,0.00,,---,0.00,VWS V14.00,2013-07-12 08:12:00,
2013-07-12 04:18:00,75.2,63.1,29.71,ENE,68,3.4,3.4,66,0.00,,---,0.00,VWS V14.00,2013-07-12 08:18:00,
2013-07-12 04:23:00,75.4,62.8,29.71,NE,45,3.1,6.0,65,0.00,,---,0.00,VWS V14.00,2013-07-12 08:23:00,
2013-07-12 04:28:00,75.2,63.1,29.71,ENE,68,1.1,2.7,66,0.00,,---,0.00,VWS V14.00,2013-07-12 08:28:00,
2013-07-12 04:34:00,75.2,62.2,29.71,NE,45,0.0,2.5,64,0.00,,---,0.00,VWS V14.00,2013-07-12 08:34:00,
2013-07-12 04:39:00,75.0,62.9,29.71,NNE,22,2.0,3.8,66,0.00,,---,0.00,VWS V14.00,2013-07-12 08:39:00,
2013-07-12 04:44:00,75.2,62.6,29.71,NE,45,3.6,3.6,65,0.00,,---,0.00,VWS V14.00,2013-07-12 08:44:00,
2013-07-12 04:49:00,75.2,62.6,29.71,ENE,68,4.9,4.9,65,0.00,,---,0.00,VWS V14.00,2013-07-12 08:49:00,
2013-07-12 04:54:00,75.2,62.6,29.71,ESE,112,1.3,2.2,65,0.00,,---,0.00,VWS V14.00,2013-07-12 08:54:00,
2013-07-12 04:59:00,75.0,62.5,29.71,WNW,292,1.1,4.0,65,0.00,,---,0.00,VWS V14.00,2013-07-12 08:59:00,
2013-07-12 05:05:00,75.0,63.3,29.71,NE,45,2.0,5.8,67,0.00,,---,0.00,VWS V14.00,2013-07-12 09:05:00,
2013-07-12 05:11:00,75.0,62.9,29.71,NNE,22,1.1,3.4,66,0.00,,---,0.00,VWS V14.00,2013-07-12 09:11:00,
2013-07-12 05:16:00,74.8,62.7,29.71,ESE,112,2.0,2.0,66,0.00,,---,0.00,VWS V14.00,2013-07-12 09:16:00,
2013-07-12 05:21:00,74.7,63.0,29.71,ENE,68,3.8,3.8,67,0.00,,---,0.00,VWS V14.00,2013-07-12 09:21:00,
2013-07-12 05:27:00,74.5,63.2,29.71,North,0,3.1,3.1,68,0.00,,---,0.00,VWS V14.00,2013-07-12 09:27:00,
2013-07-12 05:32:00,74.5,63.2,29.71,ENE,68,3.8,3.8,68,0.00,,---,0.00,VWS V14.00,2013-07-12 09:32:00,
2013-07-12 05:37:00,74.7,63.0,29.71,ENE,68,1.3,2.2,67,0.00,,---,0.00,VWS V14.00,2013-07-12 09:37:00,
2013-07-12 05:44:00,74.7,63.0,29.71,NE,45,1.3,1.6,67,0.00,,---,0.00,VWS V14.00,2013-07-12 09:44:00,
2013-07-12 05:50:00,74.5,63.2,29.74,ENE,68,2.7,2.7,68,0.00,,---,0.00,VWS V14.00,2013-07-12 09:50:00,
2013-07-12 05:55:00,74.5,63.2,29.74,WNW,292,2.0,2.0,68,0.00,,---,0.00,VWS V14.00,2013-07-12 09:55:00,
2013-07-12 06:01:00,74.7,63.0,29.74,ENE,68,3.6,5.4,67,0.00,,---,0.00,VWS V14.00,2013-07-12 10:01:00,
2013-07-12 06:06:00,74.5,63.2,29.74,NNE,22,2.0,2.9,68,0.00,,---,0.00,VWS V14.00,2013-07-12 10:06:00,
2013-07-12 06:11:00,74.5,63.2,29.74,ENE,68,2.7,3.1,68,0.00,,---,0.00,VWS V14.00,2013-07-12 10:11:00,
2013-07-12 06:17:00,74.5,63.2,29.74,NE,45,2.0,2.0,68,0.00,,---,0.00,VWS V14.00,2013-07-12 10:17:00,
2013-07-12 06:22:00,74.5,63.2,29.74,ESE,112,1.6,2.2,68,0.00,,---,0.00,VWS V14.00,2013-07-12 10:22:00,
2013-07-12 06:28:00,74.3,63.1,29.74,NNE,22,3.6,3.6,68,0.00,,---,0.00,VWS V14.00,2013-07-12 10:28:00,
2013-07-12 06:34:00,74.3,63.5,29.74,NE,45,2.9,4.9,69,0.00,,---,0.00,VWS V14.00,2013-07-12 10:34:00,
2013-07-12 06:40:00,74.3,63.5,29.74,ENE,68,3.8,3.8,69,0.00,,---,0.00,VWS V14.00,2013-07-12 10:40:00,
2013-07-12 06:45:00,74.5,63.7,29.74,ENE,68,1.3,4.7,69,0.00,,---,0.00,VWS V14.00,2013-07-12 10:45:00,
2013-07-12 06:50:00,74.3,63.5,29.74,ENE,68,6.5,6.5,69,0.00,,---,0.00,VWS V14.00,2013-07-12 10:50:00,
2013-07-12 06:55:00,74.5,63.7,29.74,ENE,68,7.2,7.2,69,0.00,,---,0.00,VWS V14.00,2013-07-12 10:55:00,
2013-07-12 07:01:00,74.5,63.7,29.74,NE,45,3.1,3.4,69,0.00,,---,0.00,VWS V14.00,2013-07-12 11:01:00,
2013-07-12 07:06:00,74.5,64.1,29.74,ENE,68,1.3,4.3,70,0.00,,---,0.00,VWS V14.00,2013-07-12 11:06:00,
2013-07-12 07:11:00,74.5,64.5,29.74,North,0,6.0,6.0,71,0.00,,---,0.00,VWS V14.00,2013-07-12 11:11:00,
2013-07-12 07:17:00,74.5,64.1,29.74,ENE,68,8.7,8.7,70,0.00,,---,0.00,VWS V14.00,2013-07-12 11:17:00,
2013-07-12 07:23:00,74.7,64.6,29.74,ENE,68,1.6,4.3,71,0.00,,---,0.00,VWS V14.00,2013-07-12 11:23:00,
2013-07-12 07:28:00,74.8,64.8,29.74,WNW,292,1.6,7.6,71,0.00,,---,0.00,VWS V14.00,2013-07-12 11:28:00,
2013-07-12 07:33:00,75.0,65.0,29.76,North,0,6.0,6.0,71,0.00,,---,0.00,VWS V14.00,2013-07-12 11:33:00,
2013-07-12 07:39:00,75.0,65.0,29.76,SSE,158,1.6,3.1,71,0.00,,---,0.00,VWS V14.00,2013-07-12 11:39:00,
2013-07-12 07:45:00,75.0,65.8,29.76,ESE,112,4.0,4.0,73,0.00,,---,0.00,VWS V14.00,2013-07-12 11:45:00,
2013-07-12 07:51:00,75.0,65.4,29.76,NNE,22,6.0,6.0,72,0.00,,---,0.00,VWS V14.00,2013-07-12 11:51:00,
2013-07-12 07:56:00,75.0,65.8,29.76,ESE,112,3.1,3.4,73,0.00,,---,0.00,VWS V14.00,2013-07-12 11:56:00,
2013-07-12 08:01:00,75.2,64.8,29.76,SE,135,2.0,5.6,70,0.00,,---,0.00,VWS V14.00,2013-07-12 12:01:00,
2013-07-12 08:07:00,75.0,65.8,29.76,SE,135,0.9,1.1,73,0.00,,---,0.00,VWS V14.00,2013-07-12 12:07:00,
2013-07-12 08:12:00,75.0,65.8,29.76,ESE,112,1.6,5.6,73,0.00,,---,0.00,VWS V14.00,2013-07-12 12:12:00,
2013-07-12 08:18:00,75.0,66.2,29.76,ENE,68,2.0,2.0,74,0.00,,---,0.00,VWS V14.00,2013-07-12 12:18:00,
2013-07-12 08:23:00,75.0,66.2,29.76,ENE,68,5.4,5.4,74,0.00,,---,0.00,VWS V14.00,2013-07-12 12:23:00,
2013-07-12 08:28:00,75.2,66.3,29.76,NE,45,2.9,5.4,74,0.00,,---,0.00,VWS V14.00,2013-07-12 12:28:00,
2013-07-12 08:34:00,75.2,66.3,29.76,NE,45,5.6,5.6,74,0.00,,---,0.00,VWS V14.00,2013-07-12 12:34:00,
2013-07-12 08:39:00,75.2,66.3,29.76,ENE,68,3.1,4.3,74,0.00,,---,0.00,VWS V14.00,2013-07-12 12:39:00,
2013-07-12 08:44:00,75.2,66.7,29.76,NE,45,8.5,8.5,75,0.00,,---,0.00,VWS V14.00,2013-07-12 12:44:00,
2013-07-12 08:49:00,75.2,66.3,29.76,NNE,22,3.8,9.6,74,0.00,,---,0.00,VWS V14.00,2013-07-12 12:49:00,
2013-07-12 08:55:00,75.4,66.5,29.76,SE,135,2.0,3.1,74,0.00,,---,0.00,VWS V14.00,2013-07-12 12:55:00,
2013-07-12 09:00:00,75.4,66.9,29.76,NNE,22,3.8,6.0,75,0.00,,---,0.00,VWS V14.00,2013-07-12 13:00:00,
2013-07-12 09:05:00,75.4,66.5,29.76,ENE,68,3.1,3.1,74,0.00,,---,0.00,VWS V14.00,2013-07-12 13:05:00,
2013-07-12 09:10:00,75.4,66.9,29.79,NNE,22,3.8,7.4,75,0.00,,---,0.00,VWS V14.00,2013-07-12 13:10:00,
2013-07-12 09:16:00,75.4,66.9,29.79,East,90,3.1,3.1,75,0.00,,---,0.00,VWS V14.00,2013-07-12 13:16:00,
2013-07-12 09:21:00,75.7,67.3,29.79,ESE,112,3.1,3.1,75,0.00,,---,0.00,VWS V14.00,2013-07-12 13:21:00,
2013-07-12 09:26:00,75.9,67.4,29.79,ENE,68,2.0,2.0,75,0.00,,---,0.00,VWS V14.00,2013-07-12 13:26:00,
2013-07-12 09:32:00,76.1,67.6,29.79,NNE,22,2.9,2.9,75,0.00,,---,0.00,VWS V14.00,2013-07-12 13:32:00,
2013-07-12 09:37:00,76.1,67.6,29.76,ENE,68,3.4,3.6,75,0.00,,---,0.00,VWS V14.00,2013-07-12 13:37:00,
2013-07-12 09:42:00,76.1,67.6,29.76,SSW,202,1.6,1.6,75,0.00,,---,0.00,VWS V14.00,2013-07-12 13:42:00,
2013-07-12 09:48:00,76.1,67.6,29.76,SSE,158,2.0,6.5,75,0.00,,---,0.00,VWS V14.00,2013-07-12 13:48:00,
2013-07-12 09:53:00,75.9,67.4,29.79,ESE,112,7.6,7.6,75,0.00,,---,0.00,VWS V14.00,2013-07-12 13:53:00,
2013-07-12 09:58:00,75.9,67.8,29.79,East,90,4.0,4.0,76,0.00,,---,0.00,VWS V14.00,2013-07-12 13:58:00,
2013-07-12 10:04:00,75.7,67.6,29.79,NE,45,4.3,4.3,76,0.00,,---,0.00,VWS V14.00,2013-07-12 14:04:00,
2013-07-12 10:09:00,75.4,67.7,29.79,ENE,68,6.0,6.0,77,0.00,,---,0.00,VWS V14.00,2013-07-12 14:09:00,
2013-07-12 10:15:00,75.4,67.7,29.79,East,90,5.4,5.4,77,0.00,,---,0.00,VWS V14.00,2013-07-12 14:15:00,
2013-07-12 10:21:00,75.2,67.5,29.79,SE,135,2.0,2.9,77,0.00,,---,0.00,VWS V14.00,2013-07-12 14:21:00,
2013-07-12 10:26:00,75.4,68.1,29.79,ENE,68,5.4,5.4,78,0.00,,---,0.00,VWS V14.00,2013-07-12 14:26:00,
2013-07-12 10:32:00,75.2,67.9,29.79,South,180,2.7,2.7,78,0.00,,---,0.00,VWS V14.00,2013-07-12 14:32:00,
2013-07-12 10:38:00,75.0,68.1,29.79,ESE,112,4.9,4.9,79,0.00,,---,0.00,VWS V14.00,2013-07-12 14:38:00,
2013-07-12 10:44:00,75.0,68.1,29.79,NE,45,2.9,5.6,79,0.00,,---,0.00,VWS V14.00,2013-07-12 14:44:00,
2013-07-12 10:50:00,74.7,68.4,29.79,SSE,158,2.7,3.4,81,0.00,,---,0.00,VWS V14.00,2013-07-12 14:50:00,
2013-07-12 10:56:00,74.7,68.4,29.79,ENE,68,2.9,2.9,81,0.00,,---,0.00,VWS V14.00,2013-07-12 14:56:00,
2013-07-12 11:01:00,74.7,68.8,29.79,ENE,68,4.9,4.9,82,0.00,,---,0.00,VWS V14.00,2013-07-12 15:01:00,
2013-07-12 11:06:00,74.8,69.0,29.79,ENE,68,3.6,4.3,82,0.00,,---,0.00,VWS V14.00,2013-07-12 15:06:00,
2013-07-12 11:12:00,74.7,68.4,29.79,NNE,22,2.9,5.8,81,0.00,,---,0.00,VWS V14.00,2013-07-12 15:12:00,
2013-07-12 11:18:00,74.8,69.0,29.79,NE,45,2.5,2.5,82,0.00,,---,0.00,VWS V14.00,2013-07-12 15:18:00,
2013-07-12 11:24:00,74.5,68.6,29.79,ENE,68,4.0,4.0,82,0.00,,---,0.00,VWS V14.00,2013-07-12 15:24:00,
2013-07-12 11:30:00,74.3,68.4,29.79,East,90,3.8,3.8,82,0.00,,---,0.00,VWS V14.00,2013-07-12 15:30:00,
2013-07-12 11:35:00,74.3,68.8,29.79,NNE,22,3.8,3.8,83,0.00,,---,0.00,VWS V14.00,2013-07-12 15:35:00,
2013-07-12 11:41:00,74.3,68.8,29.79,NNE,22,4.0,4.0,83,0.00,,---,0.00,VWS V14.00,2013-07-12 15:41:00,
2013-07-12 11:46:00,74.3,68.8,29.79,ENE,68,3.1,3.1,83,0.00,,---,0.00,VWS V14.00,2013-07-12 15:46:00,
2013-07-12 11:51:00,74.3,68.8,29.79,NNE,22,3.1,3.1,83,0.00,,---,0.00,VWS V14.00,2013-07-12 15:51:00,
2013-07-12 11:57:00,74.1,68.6,29.79,ENE,68,7.4,7.4,83,0.00,,---,0.00,VWS V14.00,2013-07-12 15:57:00,
2013-07-12 12:02:00,74.1,68.6,29.79,East,90,3.8,3.8,83,0.00,,---,0.00,VWS V14.00,2013-07-12 16:02:00,
2013-07-12 12:09:00,74.3,68.8,29.79,NE,45,5.8,5.8,83,0.00,,---,0.00,VWS V14.00,2013-07-12 16:09:00,
2013-07-12 12:14:00,74.1,68.6,29.79,WSW,248,3.4,3.4,83,0.00,,---,0.00,VWS V14.00,2013-07-12 16:14:00,
2013-07-12 12:19:00,73.9,68.5,29.79,ESE,112,1.3,1.3,83,0.00,,---,0.00,VWS V14.00,2013-07-12 16:19:00,
2013-07-12 12:25:00,73.9,68.8,29.79,NE,45,9.0,9.0,84,0.00,,---,0.00,VWS V14.00,2013-07-12 16:25:00,
2013-07-12 12:30:00,73.9,68.8,29.79,WSW,248,3.8,3.8,84,0.00,,---,0.00,VWS V14.00,2013-07-12 16:30:00,
2013-07-12 12:36:00,73.9,68.8,29.79,NE,45,1.6,2.0,84,0.00,,---,0.00,VWS V14.00,2013-07-12 16:36:00,
2013-07-12 12:42:00,73.9,68.8,29.79,ENE,68,1.3,5.8,84,0.00,,---,0.00,VWS V14.00,2013-07-12 16:42:00,
2013-07-12 12:47:00,73.9,68.8,29.79,SSE,158,2.5,2.7,84,0.00,,---,0.00,VWS V14.00,2013-07-12 16:47:00,
2013-07-12 12:54:00,73.9,68.8,29.79,NNE,22,6.0,8.5,84,0.00,,---,0.00,VWS V14.00,2013-07-12 16:54:00,
2013-07-12 12:59:00,73.9,68.8,29.79,ENE,68,5.8,5.8,84,0.00,,---,0.00,VWS V14.00,2013-07-12 16:59:00,
2013-07-12 13:05:00,73.8,69.0,29.79,ESE,112,2.2,3.4,85,0.00,,---,0.00,VWS V14.00,2013-07-12 17:05:00,
2013-07-12 13:10:00,73.8,69.0,29.79,ENE,68,7.4,7.4,85,0.00,,---,0.00,VWS V14.00,2013-07-12 17:10:00,
2013-07-12 13:16:00,73.6,68.8,29.79,NNW,338,2.5,2.5,85,0.00,,---,0.00,VWS V14.00,2013-07-12 17:16:00,
2013-07-12 13:21:00,73.6,69.5,29.79,ESE,112,4.9,6.3,87,0.00,,---,0.00,VWS V14.00,2013-07-12 17:21:00,
2013-07-12 13:27:00,73.8,69.7,29.79,SSE,158,1.3,8.5,87,0.00,,---,0.00,VWS V14.00,2013-07-12 17:27:00,
2013-07-12 13:33:00,73.9,69.5,29.79,SE,135,3.4,3.6,86,0.00,,---,0.00,VWS V14.00,2013-07-12 17:33:00,
2013-07-12 13:40:00,73.9,69.5,29.79,ENE,68,2.0,2.5,86,0.00,,---,0.00,VWS V14.00,2013-07-12 17:40:00,
2013-07-12 13:45:00,73.9,69.5,29.79,NE,45,7.6,7.6,86,0.00,,---,0.00,VWS V14.00,2013-07-12 17:45:00,
2013-07-12 13:51:00,74.1,69.3,29.79,ESE,112,2.5,2.5,85,0.00,,---,0.00,VWS V14.00,2013-07-12 17:51:00,
2013-07-12 13:56:00,74.1,69.3,29.79,ESE,112,2.9,7.6,85,0.00,,---,0.00,VWS V14.00,2013-07-12 17:56:00,
2013-07-12 14:02:00,73.6,69.1,29.79,ENE,68,6.3,6.3,86,0.00,,---,0.00,VWS V14.00,2013-07-12 18:02:00,
2013-07-12 14:07:00,73.4,69.0,29.79,ESE,112,4.3,6.0,86,0.00,,---,0.00,VWS V14.00,2013-07-12 18:07:00,
2013-07-12 14:12:00,73.4,69.0,29.79,ENE,68,9.0,9.0,86,0.00,,---,0.00,VWS V14.00,2013-07-12 18:12:00,
2013-07-12 14:18:00,73.0,68.9,29.79,ENE,68,3.6,4.9,87,0.00,,---,0.00,VWS V14.00,2013-07-12 18:18:00,
2013-07-12 14:23:00,72.9,68.8,29.79,NNW,338,3.4,6.0,87,0.00,,---,0.00,VWS V14.00,2013-07-12 18:23:00,
2013-07-12 14:29:00,72.9,69.1,29.79,SE,135,2.5,3.8,88,0.00,,---,0.00,VWS V14.00,2013-07-12 18:29:00,
2013-07-12 14:34:00,72.7,68.9,29.79,East,90,3.8,3.8,88,0.00,,---,0.00,VWS V14.00,2013-07-12 18:34:00,
2013-07-12 14:39:00,72.3,69.2,29.79,NE,45,1.1,6.3,90,0.05,,---,0.05,VWS V14.00,2013-07-12 18:39:00,
2013-07-12 14:47:00,72.1,69.1,29.79,East,90,6.0,6.0,90,0.05,,---,0.05,VWS V14.00,2013-07-12 18:47:00,
2013-07-12 14:53:00,72.1,69.1,29.79,ENE,68,10.1,10.1,90,0.09,,---,0.09,VWS V14.00,2013-07-12 18:53:00,
2013-07-12 14:58:00,72.0,69.2,29.79,SSE,158,1.1,4.3,91,0.09,,---,0.09,VWS V14.00,2013-07-12 18:58:00,
2013-07-12 15:04:00,72.1,69.4,29.79,SE,135,7.6,8.7,91,0.09,,---,0.09,VWS V14.00,2013-07-12 19:04:00,
2013-07-12 15:11:00,72.0,69.2,29.79,NNW,338,3.6,3.6,91,0.09,,---,0.09,VWS V14.00,2013-07-12 19:11:00,
2013-07-12 15:16:00,72.1,69.4,29.79,South,180,5.6,5.6,91,0.09,,---,0.09,VWS V14.00,2013-07-12 19:16:00,
2013-07-12 15:21:00,72.0,69.2,29.79,ENE,68,2.7,5.4,91,0.13,,---,0.13,VWS V14.00,2013-07-12 19:21:00,
2013-07-12 15:27:00,72.0,69.2,29.79,NE,45,3.6,6.0,91,0.13,,---,0.13,VWS V14.00,2013-07-12 19:27:00,
2013-07-12 15:32:00,72.0,69.2,29.79,SSW,202,0.0,0.9,91,0.13,,---,0.13,VWS V14.00,2013-07-12 19:32:00,
2013-07-12 15:37:00,72.0,69.2,29.79,ENE,68,6.5,6.5,91,0.13,,---,0.13,VWS V14.00,2013-07-12 19:37:00,
2013-07-12 15:43:00,72.0,69.2,29.79,NNE,22,2.0,2.9,91,0.08,,---,0.13,VWS V14.00,2013-07-12 19:43:00,
2013-07-12 15:48:00,72.0,69.2,29.79,ENE,68,3.1,3.1,91,0.08,,---,0.13,VWS V14.00,2013-07-12 19:48:00,
2013-07-12 15:53:00,72.0,69.2,29.79,NNE,22,2.0,5.8,91,0.04,,---,0.13,VWS V14.00,2013-07-12 19:53:00,
2013-07-12 15:58:00,72.1,69.4,29.79,East,90,2.2,3.4,91,0.04,,---,0.13,VWS V14.00,2013-07-12 19:58:00,
2013-07-12 16:04:00,72.1,69.4,29.79,NE,45,2.0,2.0,91,0.04,,---,0.13,VWS V14.00,2013-07-12 20:04:00,
2013-07-12 16:09:00,72.1,69.4,29.79,WNW,292,0.0,1.3,91,0.04,,---,0.13,VWS V14.00,2013-07-12 20:09:00,
2013-07-12 16:15:00,72.1,69.4,29.79,East,90,2.7,2.7,91,0.04,,---,0.13,VWS V14.00,2013-07-12 20:15:00,
2013-07-12 16:20:00,72.1,69.4,29.79,SE,135,2.9,2.9,91,0.00,,---,0.13,VWS V14.00,2013-07-12 20:20:00,
2013-07-12 16:25:00,72.3,69.6,29.79,SSW,202,3.4,3.4,91,0.00,,---,0.13,VWS V14.00,2013-07-12 20:25:00,
2013-07-12 16:31:00,72.3,69.6,29.79,NE,45,2.5,6.5,91,0.00,,---,0.13,VWS V14.00,2013-07-12 20:31:00,
2013-07-12 16:37:00,72.5,69.7,29.79,ENE,68,11.9,11.9,91,0.00,,---,0.13,VWS V14.00,2013-07-12 20:37:00,
2013-07-12 16:42:00,72.3,69.9,29.79,ENE,68,0.9,2.0,92,0.00,,---,0.13,VWS V14.00,2013-07-12 20:42:00,
2013-07-12 16:48:00,72.3,69.6,29.79,NE,45,0.0,2.2,91,0.00,,---,0.13,VWS V14.00,2013-07-12 20:48:00,
2013-07-12 16:53:00,72.1,69.4,29.79,SSE,158,4.0,4.0,91,0.00,,---,0.13,VWS V14.00,2013-07-12 20:53:00,
2013-07-12 16:59:00,72.3,69.6,29.79,ESE,112,2.5,2.5,91,0.00,,---,0.13,VWS V14.00,2013-07-12 20:59:00,
2013-07-12 17:04:00,72.1,69.4,29.79,ESE,112,3.6,3.6,91,0.00,,---,0.13,VWS V14.00,2013-07-12 21:04:00,
2013-07-12 17:11:00,72.0,69.5,29.79,SSE,158,0.0,2.0,92,0.00,,---,0.13,VWS V14.00,2013-07-12 21:11:00,
2013-07-12 17:17:00,72.0,69.5,29.79,NW,315,1.3,2.9,92,0.00,,---,0.13,VWS V14.00,2013-07-12 21:17:00,
2013-07-12 17:23:00,71.8,69.3,29.79,ESE,112,3.8,3.8,92,0.00,,---,0.13,VWS V14.00,2013-07-12 21:23:00,
2013-07-12 17:28:00,71.8,69.3,29.79,South,180,0.0,1.3,92,0.00,,---,0.13,VWS V14.00,2013-07-12 21:28:00,
2013-07-12 17:34:00,71.8,69.3,29.79,NE,45,5.6,5.6,92,0.00,,---,0.13,VWS V14.00,2013-07-12 21:34:00,
2013-07-12 17:39:00,71.8,69.3,29.79,NNE,22,0.0,0.0,92,0.00,,---,0.13,VWS V14.00,2013-07-12 21:39:00,
2013-07-12 17:45:00,71.8,69.3,29.79,WSW,248,0.0,2.9,92,0.00,,---,0.13,VWS V14.00,2013-07-12 21:45:00,
2013-07-12 17:50:00,71.6,69.2,29.79,SE,135,3.1,3.1,92,0.00,,---,0.13,VWS V14.00,2013-07-12 21:50:00,
2013-07-12 17:57:00,71.6,68.8,29.79,NE,45,7.2,7.2,91,0.00,,---,0.13,VWS V14.00,2013-07-12 21:57:00,
2013-07-12 18:02:00,71.6,69.2,29.79,NNW,338,3.4,5.6,92,0.00,,---,0.13,VWS V14.00,2013-07-12 22:02:00,
2013-07-12 18:08:00,71.4,69.0,29.79,ENE,68,6.5,6.5,92,0.00,,---,0.13,VWS V14.00,2013-07-12 22:08:00,
2013-07-12 18:13:00,71.4,69.0,29.79,ENE,68,1.1,3.1,92,0.00,,---,0.13,VWS V14.00,2013-07-12 22:13:00,
2013-07-12 18:18:00,71.4,69.0,29.79,ENE,68,0.0,3.4,92,0.00,,---,0.13,VWS V14.00,2013-07-12 22:18:00,
2013-07-12 18:24:00,71.4,69.0,29.79,NNE,22,3.1,3.6,92,0.00,,---,0.13,VWS V14.00,2013-07-12 22:24:00,
2013-07-12 18:29:00,71.4,69.0,29.79,WSW,248,0.0,1.1,92,0.00,,---,0.13,VWS V14.00,2013-07-12 22:29:00,
2013-07-12 18:35:00,71.2,68.8,29.79,NNE,22,0.0,0.0,92,0.00,,---,0.13,VWS V14.00,2013-07-12 22:35:00,
2013-07-12 18:40:00,71.2,68.8,29.79,NW,315,0.9,6.3,92,0.00,,---,0.13,VWS V14.00,2013-07-12 22:40:00,
2013-07-12 18:46:00,71.1,68.6,29.79,SSW,202,3.1,7.6,92,0.00,,---,0.13,VWS V14.00,2013-07-12 22:46:00,
2013-07-12 18:52:00,71.1,68.6,29.79,SSE,158,0.0,0.9,92,0.00,,---,0.13,VWS V14.00,2013-07-12 22:52:00,
2013-07-12 18:58:00,71.1,68.9,29.79,NE,45,4.3,4.3,93,0.00,,---,0.13,VWS V14.00,2013-07-12 22:58:00,
2013-07-12 19:03:00,70.9,68.4,29.79,ESE,112,4.7,4.7,92,0.00,,---,0.13,VWS V14.00,2013-07-12 23:03:00,
2013-07-12 19:09:00,71.1,68.6,29.79,SE,135,2.2,2.5,92,0.00,,---,0.13,VWS V14.00,2013-07-12 23:09:00,
2013-07-12 19:14:00,70.9,68.4,29.79,WNW,292,3.4,3.4,92,0.00,,---,0.13,VWS V14.00,2013-07-12 23:14:00,
2013-07-12 19:21:00,70.9,68.4,29.79,ENE,68,1.6,5.8,92,0.00,,---,0.13,VWS V14.00,2013-07-12 23:21:00,
2013-07-12 19:27:00,70.9,68.8,29.79,NW,315,0.9,4.0,93,0.00,,---,0.13,VWS V14.00,2013-07-12 23:27:00,
2013-07-12 19:32:00,70.9,68.8,29.79,NE,45,2.7,3.6,93,0.00,,---,0.13,VWS V14.00,2013-07-12 23:32:00,
2013-07-12 19:38:00,70.7,68.6,29.79,ESE,112,4.7,4.7,93,0.00,,---,0.13,VWS V14.00,2013-07-12 23:38:00,
2013-07-12 19:43:00,70.7,68.6,29.79,NNE,22,2.9,2.9,93,0.00,,---,0.13,VWS V14.00,2013-07-12 23:43:00,
2013-07-12 19:50:00,70.7,68.6,29.79,NNE,22,5.6,5.6,93,0.00,,---,0.13,VWS V14.00,2013-07-12 23:50:00,
2013-07-12 19:55:00,70.7,68.6,29.79,ENE,68,2.0,3.8,93,0.00,,---,0.13,VWS V14.00,2013-07-12 23:55:00,
2013-07-12 20:01:00,70.7,68.6,29.79,ENE,68,1.6,2.9,93,0.00,,---,0.13,VWS V14.00,2013-07-13 00:01:00,
2013-07-12 20:09:00,70.7,68.6,29.82,SSE,158,0.0,5.8,93,0.00,,---,0.13,VWS V14.00,2013-07-13 00:09:00,
2013-07-12 20:14:00,70.7,68.6,29.82,NNE,22,4.0,4.0,93,0.00,,---,0.13,VWS V14.00,2013-07-13 00:14:00,
2013-07-12 20:20:00,70.7,68.6,29.82,East,90,3.1,3.1,93,0.00,,---,0.13,VWS V14.00,2013-07-13 00:20:00,
2013-07-12 20:25:00,70.7,68.6,29.82,ENE,68,2.9,2.9,93,0.00,,---,0.13,VWS V14.00,2013-07-13 00:25:00,
2013-07-12 20:31:00,70.7,68.6,29.82,ENE,68,5.8,5.8,93,0.00,,---,0.13,VWS V14.00,2013-07-13 00:31:00,
2013-07-12 20:37:00,70.5,68.4,29.82,ESE,112,4.0,9.4,93,0.00,,---,0.13,VWS V14.00,2013-07-13 00:37:00,
2013-07-12 20:43:00,70.5,68.7,29.82,SSE,158,2.5,2.5,94,0.00,,---,0.13,VWS V14.00,2013-07-13 00:43:00,
2013-07-12 20:48:00,70.5,68.7,29.82,NE,45,8.1,8.1,94,0.00,,---,0.13,VWS V14.00,2013-07-13 00:48:00,
2013-07-12 20:53:00,70.5,68.7,29.82,ENE,68,7.6,7.6,94,0.00,,---,0.13,VWS V14.00,2013-07-13 00:53:00,
2013-07-12 20:59:00,70.5,68.7,29.82,East,90,2.5,3.4,94,0.00,,---,0.13,VWS V14.00,2013-07-13 00:59:00,
2013-07-12 21:04:00,70.5,68.7,29.82,NE,45,3.1,3.8,94,0.00,,---,0.13,VWS V14.00,2013-07-13 01:04:00,
2013-07-12 21:09:00,70.5,68.7,29.82,ENE,68,3.1,3.1,94,0.04,,---,0.17,VWS V14.00,2013-07-13 01:09:00,
2013-07-12 21:14:00,70.5,68.7,29.82,ESE,112,6.5,6.5,94,0.04,,---,0.17,VWS V14.00,2013-07-13 01:14:00,
2013-07-12 21:20:00,70.3,68.5,29.82,ENE,68,2.5,4.0,94,0.04,,---,0.17,VWS V14.00,2013-07-13 01:20:00,
2013-07-12 21:26:00,70.5,68.7,29.82,NE,45,5.8,5.8,94,0.04,,---,0.17,VWS V14.00,2013-07-13 01:26:00,
2013-07-12 21:31:00,70.3,68.5,29.82,ENE,68,2.9,2.9,94,0.04,,---,0.17,VWS V14.00,2013-07-13 01:31:00,
2013-07-12 21:37:00,70.5,68.7,29.82,SSW,202,2.0,7.6,94,0.04,,---,0.17,VWS V14.00,2013-07-13 01:37:00,
2013-07-12 21:43:00,70.3,68.5,29.82,ENE,68,8.5,8.5,94,0.04,,---,0.17,VWS V14.00,2013-07-13 01:43:00,
2013-07-12 21:48:00,70.3,68.5,29.82,ENE,68,3.1,3.4,94,0.04,,---,0.17,VWS V14.00,2013-07-13 01:48:00,
2013-07-12 21:55:00,70.3,68.5,29.82,SSW,202,1.3,2.2,94,0.04,,---,0.17,VWS V14.00,2013-07-13 01:55:00,
2013-07-12 22:00:00,70.3,68.5,29.82,NNE,22,0.9,2.5,94,0.04,,---,0.17,VWS V14.00,2013-07-13 02:00:00,
2013-07-12 22:10:00,70.3,68.5,29.82,NNE,22,5.6,5.6,94,0.00,,---,0.17,VWS V14.00,2013-07-13 02:10:00,
2013-07-12 22:16:00,70.5,68.7,29.82,ENE,68,4.0,4.0,94,0.00,,---,0.17,VWS V14.00,2013-07-13 02:16:00,
2013-07-12 22:22:00,70.5,68.7,29.82,NE,45,2.7,2.7,94,0.00,,---,0.17,VWS V14.00,2013-07-13 02:22:00,
2013-07-12 22:27:00,70.7,69.2,29.82,ENE,68,0.0,0.0,95,0.00,,---,0.17,VWS V14.00,2013-07-13 02:27:00,
2013-07-12 22:32:00,70.7,69.2,29.82,South,180,2.7,5.8,95,0.00,,---,0.17,VWS V14.00,2013-07-13 02:32:00,
2013-07-12 22:37:00,70.9,69.4,29.82,WNW,292,0.0,3.4,95,0.00,,---,0.17,VWS V14.00,2013-07-13 02:37:00,
2013-07-12 22:44:00,71.1,69.6,29.82,SSW,202,0.0,2.7,95,0.00,,---,0.17,VWS V14.00,2013-07-13 02:44:00,
2013-07-12 22:50:00,71.2,69.7,29.82,NNW,338,4.0,4.0,95,0.00,,---,0.17,VWS V14.00,2013-07-13 02:50:00,
2013-07-12 22:58:00,71.2,69.7,29.82,SSW,202,0.0,0.0,95,0.00,,---,0.17,VWS V14.00,2013-07-13 02:58:00,
2013-07-12 23:04:00,71.4,69.9,29.82,ENE,68,0.0,3.4,95,0.00,,---,0.17,VWS V14.00,2013-07-13 03:04:00,
2013-07-12 23:10:00,71.8,70.3,29.82,West,270,0.0,1.3,95,0.00,,---,0.17,VWS V14.00,2013-07-13 03:10:00,
2013-07-12 23:16:00,71.8,70.3,29.82,NNW,338,2.5,2.5,95,0.00,,---,0.17,VWS V14.00,2013-07-13 03:16:00,
2013-07-12 23:22:00,72.1,70.6,29.85,SSW,202,2.0,2.0,95,0.00,,---,0.17,VWS V14.00,2013-07-13 03:22:00,
2013-07-12 23:27:00,72.1,70.6,29.85,SSE,158,2.0,2.0,95,0.00,,---,0.17,VWS V14.00,2013-07-13 03:27:00,
2013-07-12 23:33:00,72.3,70.8,29.85,SSE,158,1.3,1.3,95,0.00,,---,0.17,VWS V14.00,2013-07-13 03:33:00,
2013-07-12 23:38:00,72.5,71.0,29.85,SSW,202,1.3,2.9,95,0.00,,---,0.17,VWS V14.00,2013-07-13 03:38:00,
2013-07-12 23:44:00,72.5,71.0,29.85,SSE,158,0.0,0.0,95,0.00,,---,0.17,VWS V14.00,2013-07-13 03:44:00,
2013-07-12 23:50:00,72.5,71.0,29.85,SE,135,0.9,0.9,95,0.00,,---,0.17,VWS V14.00,2013-07-13 03:50:00,
2013-07-12 23:55:00,72.5,71.0,29.85,WSW,248,0.9,0.9,95,0.00,,---,0.17,VWS V14.00,2013-07-13 03:55:00,